Bicheno, Tasmania

1:56 PM AEST on May 27, 2015 (GMT +1000)
The Grange Hills Swansea | | Change Station
CLOSE
Current Station
Personal Weather Station
Location: Swansea, TASMANIA
Elevation: 79 ft
Nearby Weather Stations

Elev 79 ft 42.04 °S, 148.08 °E | Updated 1 minute ago

Overcast
Overcast
60.4 °F
Feels Like 60.4 °F
N
8.1
Wind Variable Wind from WNW
Gusts 9.0 mph

Today
High -- | Low -- °F
--% Chance of Precip.
Yesterday
High -- | Low -- °F
Precip. -- in
7:20 AM 4:47 PM
Waxing Gibbous, 63% visible
Pressure 30.01 in
Visibility 3.1 miles
Clouds Overcast 1200 ft
Dew Point 49 °F
Humidity 66%
Rainfall 0.00 in
Snow Depth Not available.
UV 1 out of 12
Pollen Not available.
Air Quality Not available.
Flu Activity Not available.
SPECI YMLT 270330Z AUTO 34011KT 5000 -SHRA OVC012 12/10 Q1016

More Conditions Fewer Conditions

Pressure 30.01 in
Visibility 3.1 miles
Clouds Overcast 1200 ft
Dew Point 49 °F
Humidity 66%
Rainfall 0.00 in
Snow Depth Not available.
UV 1 out of 12
Pollen Not available.
Air Quality Not available.
Flu Activity Not available.
SPECI YMLT 270330Z AUTO 34011KT 5000 -SHRA OVC012 12/10 Q1016

More Conditions Fewer Conditions

10-Day Weather Forecast

Almanac

Astronomy

May. 27, 2015 Rise Set
Actual Time
Civil Twilight
Nautical Twilight
Astronomical Twilight
Moon
Length of Visible Light
Length of Day
Tomorrow will be .
, % of the Moon is Illuminated

Today's Extremes

Country Highs Country Lows

Community

WunderPhotos

Upload Photos

1,824,600 photos uploaded!

WunderBlogs® & News

Nearby

Air Quality

  Air Quality AQ Index Pollutant
Not available.

Snow Depth

Station Depth Elevation

Earthquake Activity

City Distance Mag. Time & Date
Minimum magnitude displayed is 2.5.

Coastal Water Temperatures

Place Temperature

Stations

Nearby Weather Stations

Station Location Temp. Windchill Dew Point Humidity Wind Precip. Elev Updated Type